sensor_id;sensor_type;location;lat;lon;timestamp;temperature;humidity
36186;DHT22;22228;53.222;7.446;2023-04-07T00:00:35;7.10;99.90
36186;DHT22;22228;53.222;7.446;2023-04-07T00:02:59;7.10;99.90
36186;DHT22;22228;53.222;7.446;2023-04-07T00:05:22;7.10;99.90
36186;DHT22;22228;53.222;7.446;2023-04-07T00:07:47;7.10;99.90
36186;DHT22;22228;53.222;7.446;2023-04-07T00:10:08;7.10;99.90
36186;DHT22;22228;53.222;7.446;2023-04-07T00:12:30;7.10;99.90
36186;DHT22;22228;53.222;7.446;2023-04-07T00:14:52;7.20;99.90
36186;DHT22;22228;53.222;7.446;2023-04-07T03:01:41;7.10;99.90
36186;DHT22;22228;53.222;7.446;2023-04-07T03:04:04;7.10;99.90
36186;DHT22;22228;53.222;7.446;2023-04-07T03:06:52;7.10;99.90
36186;DHT22;22228;53.222;7.446;2023-04-07T03:09:14;7.10;99.90
36186;DHT22;22228;53.222;7.446;2023-04-07T03:11:35;7.10;99.90
36186;DHT22;22228;53.222;7.446;2023-04-07T03:13:59;7.10;99.90
36186;DHT22;22228;53.222;7.446;2023-04-07T03:16:27;7.10;99.90
36186;DHT22;22228;53.222;7.446;2023-04-07T03:19:05;7.10;99.90
36186;DHT22;22228;53.222;7.446;2023-04-07T03:21:31;7.00;99.90
36186;DHT22;22228;53.222;7.446;2023-04-07T03:23:52;7.00;99.90
36186;DHT22;22228;53.222;7.446;2023-04-07T03:26:18;7.00;99.90
36186;DHT22;22228;53.222;7.446;2023-04-07T03:29:05;7.00;99.90
36186;DHT22;22228;53.222;7.446;2023-04-07T03:31:27;7.00;99.90
36186;DHT22;22228;53.222;7.446;2023-04-07T03:33:56;6.90;99.90
36186;DHT22;22228;53.222;7.446;2023-04-07T03:36:19;6.90;99.90
36186;DHT22;22228;53.222;7.446;2023-04-07T03:38:45;6.90;99.90
36186;DHT22;22228;53.222;7.446;2023-04-07T03:41:13;6.90;99.90
36186;DHT22;22228;53.222;7.446;2023-04-07T03:43:36;6.90;99.90
36186;DHT22;22228;53.222;7.446;2023-04-07T03:45:58;6.90;99.90
36186;DHT22;22228;53.222;7.446;2023-04-07T03:48:44;6.80;99.90
36186;DHT22;22228;53.222;7.446;2023-04-07T03:51:33;6.80;99.90
36186;DHT22;22228;53.222;7.446;2023-04-07T03:53:56;6.90;99.90
36186;DHT22;22228;53.222;7.446;2023-04-07T03:56:27;6.90;99.90
36186;DHT22;22228;53.222;7.446;2023-04-07T03:58:49;6.90;99.90
36186;DHT22;22228;53.222;7.446;2023-04-07T04:01:19;6.90;99.90
36186;DHT22;22228;53.222;7.446;2023-04-07T04:03:46;6.80;99.90
36186;DHT22;22228;53.222;7.446;2023-04-07T04:06:25;6.80;99.90
36186;DHT22;22228;53.222;7.446;2023-04-07T04:08:52;6.80;99.90
36186;DHT22;22228;53.222;7.446;2023-04-07T04:11:18;6.80;99.90
36186;DHT22;22228;53.222;7.446;2023-04-07T04:13:49;6.80;99.90
36186;DHT22;22228;53.222;7.446;2023-04-07T04:16:11;6.80;99.90
36186;DHT22;22228;53.222;7.446;2023-04-07T04:18:33;6.80;99.90
36186;DHT22;22228;53.222;7.446;2023-04-07T04:20:54;6.80;99.90
36186;DHT22;22228;53.222;7.446;2023-04-07T04:23:22;6.70;99.90
36186;DHT22;22228;53.222;7.446;2023-04-07T04:25:54;6.70;99.90
36186;DHT22;22228;53.222;7.446;2023-04-07T04:28:20;6.70;99.90
36186;DHT22;22228;53.222;7.446;2023-04-07T04:30:43;6.70;99.90
36186;DHT22;22228;53.222;7.446;2023-04-07T04:33:09;6.70;99.90
36186;DHT22;22228;53.222;7.446;2023-04-07T04:35:38;6.60;99.90
36186;DHT22;22228;53.222;7.446;2023-04-07T04:38:03;6.60;99.90
36186;DHT22;22228;53.222;7.446;2023-04-07T04:40:24;6.60;99.90
36186;DHT22;22228;53.222;7.446;2023-04-07T04:42:54;6.50;99.90
36186;DHT22;22228;53.222;7.446;2023-04-07T04:45:16;6.50;99.90
36186;DHT22;22228;53.222;7.446;2023-04-07T04:47:40;6.50;99.90
36186;DHT22;22228;53.222;7.446;2023-04-07T04:50:03;6.40;99.90
36186;DHT22;22228;53.222;7.446;2023-04-07T04:52:28;6.40;99.90
36186;DHT22;22228;53.222;7.446;2023-04-07T04:54:50;6.40;99.90
36186;DHT22;22228;53.222;7.446;2023-04-07T04:57:14;6.40;99.90
36186;DHT22;22228;53.222;7.446;2023-04-07T04:59:38;6.40;99.90
36186;DHT22;22228;53.222;7.446;2023-04-07T05:02:01;6.40;99.90
36186;DHT22;22228;53.222;7.446;2023-04-07T05:04:24;6.30;99.90
36186;DHT22;22228;53.222;7.446;2023-04-07T05:06:53;6.30;99.90
36186;DHT22;22228;53.222;7.446;2023-04-07T05:09:19;6.30;99.90
36186;DHT22;22228;53.222;7.446;2023-04-07T05:11:42;6.30;99.90
36186;DHT22;22228;53.222;7.446;2023-04-07T05:14:03;6.30;99.90
36186;DHT22;22228;53.222;7.446;2023-04-07T05:16:26;6.30;99.90
36186;DHT22;22228;53.222;7.446;2023-04-07T05:19:18;6.30;99.90
36186;DHT22;22228;53.222;7.446;2023-04-07T05:21:39;6.30;99.90
36186;DHT22;22228;53.222;7.446;2023-04-07T05:24:04;6.30;99.90
36186;DHT22;22228;53.222;7.446;2023-04-07T05:26:32;6.40;99.90
36186;DHT22;22228;53.222;7.446;2023-04-07T05:28:56;6.40;99.90
36186;DHT22;22228;53.222;7.446;2023-04-07T05:31:18;6.40;99.90
36186;DHT22;22228;53.222;7.446;2023-04-07T05:33:42;6.40;99.90
36186;DHT22;22228;53.222;7.446;2023-04-07T05:36:04;6.40;99.90
36186;DHT22;22228;53.222;7.446;2023-04-07T05:38:27;6.40;99.90
36186;DHT22;22228;53.222;7.446;2023-04-07T05:40:51;6.40;99.90
36186;DHT22;22228;53.222;7.446;2023-04-07T05:43:18;6.40;99.90
36186;DHT22;22228;53.222;7.446;2023-04-07T05:45:40;6.30;99.90
36186;DHT22;22228;53.222;7.446;2023-04-07T05:48:02;6.30;99.90
36186;DHT22;22228;53.222;7.446;2023-04-07T05:50:33;6.30;99.90
36186;DHT22;22228;53.222;7.446;2023-04-07T05:52:58;6.30;99.90
36186;DHT22;22228;53.222;7.446;2023-04-07T05:55:45;6.30;99.90
36186;DHT22;22228;53.222;7.446;2023-04-07T05:58:21;6.40;99.90
36186;DHT22;22228;53.222;7.446;2023-04-07T06:00:45;6.40;99.90
36186;DHT22;22228;53.222;7.446;2023-04-07T06:03:09;6.50;99.90
36186;DHT22;22228;53.222;7.446;2023-04-07T06:05:46;6.50;99.90
36186;DHT22;22228;53.222;7.446;2023-04-07T06:08:12;6.60;99.90
36186;DHT22;22228;53.222;7.446;2023-04-07T06:10:35;6.60;99.90
36186;DHT22;22228;53.222;7.446;2023-04-07T06:12:56;6.70;99.90
36186;DHT22;22228;53.222;7.446;2023-04-07T06:15:22;6.70;99.90
36186;DHT22;22228;53.222;7.446;2023-04-07T06:17:45;6.80;99.90
36186;DHT22;22228;53.222;7.446;2023-04-07T06:20:07;6.80;99.90
36186;DHT22;22228;53.222;7.446;2023-04-07T06:22:55;6.80;99.90
36186;DHT22;22228;53.222;7.446;2023-04-07T06:25:42;6.90;99.90
36186;DHT22;22228;53.222;7.446;2023-04-07T06:28:05;6.90;99.90
36186;DHT22;22228;53.222;7.446;2023-04-07T06:30:27;6.90;99.90
36186;DHT22;22228;53.222;7.446;2023-04-07T06:32:49;6.90;99.90
36186;DHT22;22228;53.222;7.446;2023-04-07T06:35:17;7.00;99.90
36186;DHT22;22228;53.222;7.446;2023-04-07T06:37:43;7.10;99.90
36186;DHT22;22228;53.222;7.446;2023-04-07T06:40:07;7.20;99.90
36186;DHT22;22228;53.222;7.446;2023-04-07T06:42:30;7.20;99.90
36186;DHT22;22228;53.222;7.446;2023-04-07T06:45:01;7.30;99.90
36186;DHT22;22228;53.222;7.446;2023-04-07T06:48:12;7.40;99.90
36186;DHT22;22228;53.222;7.446;2023-04-07T06:50:59;7.40;99.90
36186;DHT22;22228;53.222;7.446;2023-04-07T06:53:25;7.50;99.90
36186;DHT22;22228;53.222;7.446;2023-04-07T06:55:47;7.50;99.90
36186;DHT22;22228;53.222;7.446;2023-04-07T06:58:09;7.50;99.90
36186;DHT22;22228;53.222;7.446;2023-04-07T07:00:31;7.60;99.90
36186;DHT22;22228;53.222;7.446;2023-04-07T07:02:51;7.60;99.90
36186;DHT22;22228;53.222;7.446;2023-04-07T07:05:17;7.60;99.90
36186;DHT22;22228;53.222;7.446;2023-04-07T07:07:38;7.60;99.90
36186;DHT22;22228;53.222;7.446;2023-04-07T07:09:58;7.70;99.90
36186;DHT22;22228;53.222;7.446;2023-04-07T07:12:21;7.70;99.90
36186;DHT22;22228;53.222;7.446;2023-04-07T07:14:43;7.80;99.90
36186;DHT22;22228;53.222;7.446;2023-04-07T07:17:06;7.80;99.90
36186;DHT22;22228;53.222;7.446;2023-04-07T07:19:28;7.80;99.90
36186;DHT22;22228;53.222;7.446;2023-04-07T07:21:52;7.90;99.90
36186;DHT22;22228;53.222;7.446;2023-04-07T07:24:14;7.90;99.90
36186;DHT22;22228;53.222;7.446;2023-04-07T07:26:35;8.00;99.90
36186;DHT22;22228;53.222;7.446;2023-04-07T07:28:57;8.10;99.90
36186;DHT22;22228;53.222;7.446;2023-04-07T07:31:25;8.10;99.90
36186;DHT22;22228;53.222;7.446;2023-04-07T07:33:47;8.20;99.90
36186;DHT22;22228;53.222;7.446;2023-04-07T07:36:09;8.30;99.90
36186;DHT22;22228;53.222;7.446;2023-04-07T07:38:34;8.50;99.90
36186;DHT22;22228;53.222;7.446;2023-04-07T07:40:55;8.70;99.90
36186;DHT22;22228;53.222;7.446;2023-04-07T07:43:24;8.80;99.90
36186;DHT22;22228;53.222;7.446;2023-04-07T07:45:46;9.00;99.90
36186;DHT22;22228;53.222;7.446;2023-04-07T07:48:14;9.20;99.90
36186;DHT22;22228;53.222;7.446;2023-04-07T07:51:01;9.40;99.90
36186;DHT22;22228;53.222;7.446;2023-04-07T07:53:29;9.70;99.90
36186;DHT22;22228;53.222;7.446;2023-04-07T07:56:14;9.80;99.90
36186;DHT22;22228;53.222;7.446;2023-04-07T07:59:02;10.00;99.90
36186;DHT22;22228;53.222;7.446;2023-04-07T08:01:26;10.10;99.90
36186;DHT22;22228;53.222;7.446;2023-04-07T08:10:15;10.50;99.90
36186;DHT22;22228;53.222;7.446;2023-04-07T08:12:39;10.60;99.90
36186;DHT22;22228;53.222;7.446;2023-04-07T08:15:00;10.70;99.90
36186;DHT22;22228;53.222;7.446;2023-04-07T08:17:46;10.80;99.90
36186;DHT22;22228;53.222;7.446;2023-04-07T08:20:14;10.90;99.90
36186;DHT22;22228;53.222;7.446;2023-04-07T08:22:34;11.00;99.90
36186;DHT22;22228;53.222;7.446;2023-04-07T08:25:24;11.00;99.90
36186;DHT22;22228;53.222;7.446;2023-04-07T08:27:45;11.00;99.90
36186;DHT22;22228;53.222;7.446;2023-04-07T08:30:33;11.10;99.90
36186;DHT22;22228;53.222;7.446;2023-04-07T08:32:56;11.20;99.90
36186;DHT22;22228;53.222;7.446;2023-04-07T08:35:17;11.20;99.90
36186;DHT22;22228;53.222;7.446;2023-04-07T08:38:04;11.10;99.90
36186;DHT22;22228;53.222;7.446;2023-04-07T08:41:02;11.10;99.90
36186;DHT22;22228;53.222;7.446;2023-04-07T08:43:49;11.20;99.90
36186;DHT22;22228;53.222;7.446;2023-04-07T08:46:18;11.20;99.90
36186;DHT22;22228;53.222;7.446;2023-04-07T08:48:43;11.20;99.90
36186;DHT22;22228;53.222;7.446;2023-04-07T08:51:06;11.30;99.90
36186;DHT22;22228;53.222;7.446;2023-04-07T08:53:35;11.30;99.90
36186;DHT22;22228;53.222;7.446;2023-04-07T08:55:57;11.30;99.90
36186;DHT22;22228;53.222;7.446;2023-04-07T08:58:29;11.30;99.90
36186;DHT22;22228;53.222;7.446;2023-04-07T09:00:51;11.30;99.90
36186;DHT22;22228;53.222;7.446;2023-04-07T09:03:12;11.30;99.90
36186;DHT22;22228;53.222;7.446;2023-04-07T09:05:42;11.40;99.90
36186;DHT22;22228;53.222;7.446;2023-04-07T09:08:04;11.40;99.90
36186;DHT22;22228;53.222;7.446;2023-04-07T09:10:27;11.50;99.90
36186;DHT22;22228;53.222;7.446;2023-04-07T09:12:49;11.50;99.90
36186;DHT22;22228;53.222;7.446;2023-04-07T09:15:13;11.60;99.90
36186;DHT22;22228;53.222;7.446;2023-04-07T09:18:05;11.60;99.90
36186;DHT22;22228;53.222;7.446;2023-04-07T09:20:26;11.60;99.90
36186;DHT22;22228;53.222;7.446;2023-04-07T09:22:48;11.60;99.90
36186;DHT22;22228;53.222;7.446;2023-04-07T09:25:17;11.70;99.90
36186;DHT22;22228;53.222;7.446;2023-04-07T09:27:39;11.60;99.90
36186;DHT22;22228;53.222;7.446;2023-04-07T09:30:11;11.70;99.90
36186;DHT22;22228;53.222;7.446;2023-04-07T09:32:36;11.80;99.90
36186;DHT22;22228;53.222;7.446;2023-04-07T09:34:58;11.90;99.90
36186;DHT22;22228;53.222;7.446;2023-04-07T09:37:21;12.00;99.90
36186;DHT22;22228;53.222;7.446;2023-04-07T09:39:51;12.00;99.90
36186;DHT22;22228;53.222;7.446;2023-04-07T09:42:24;12.10;99.90
36186;DHT22;22228;53.222;7.446;2023-04-07T09:45:15;12.10;99.90
36186;DHT22;22228;53.222;7.446;2023-04-07T09:47:43;12.20;99.90
36186;DHT22;22228;53.222;7.446;2023-04-07T09:50:05;12.30;99.90
36186;DHT22;22228;53.222;7.446;2023-04-07T09:52:52;12.40;99.90
36186;DHT22;22228;53.222;7.446;2023-04-07T09:55:15;12.50;99.90
36186;DHT22;22228;53.222;7.446;2023-04-07T09:57:37;12.50;99.90
36186;DHT22;22228;53.222;7.446;2023-04-07T10:00:07;12.60;99.90
36186;DHT22;22228;53.222;7.446;2023-04-07T10:02:58;12.70;99.90
36186;DHT22;22228;53.222;7.446;2023-04-07T10:05:51;12.80;99.90
36186;DHT22;22228;53.222;7.446;2023-04-07T10:08:17;12.90;99.90
36186;DHT22;22228;53.222;7.446;2023-04-07T10:10:41;13.10;99.90
36186;DHT22;22228;53.222;7.446;2023-04-07T10:13:03;13.20;99.90
36186;DHT22;22228;53.222;7.446;2023-04-07T10:15:25;13.30;99.90
36186;DHT22;22228;53.222;7.446;2023-04-07T10:17:48;13.40;99.90
36186;DHT22;22228;53.222;7.446;2023-04-07T10:20:10;13.50;99.90
36186;DHT22;22228;53.222;7.446;2023-04-07T10:22:32;13.60;99.90
36186;DHT22;22228;53.222;7.446;2023-04-07T10:28:15;13.90;99.90
36186;DHT22;22228;53.222;7.446;2023-04-07T10:30:37;14.00;99.90
36186;DHT22;22228;53.222;7.446;2023-04-07T10:32:59;14.10;99.90
36186;DHT22;22228;53.222;7.446;2023-04-07T10:35:24;14.20;99.90
36186;DHT22;22228;53.222;7.446;2023-04-07T10:38:08;14.30;99.90
36186;DHT22;22228;53.222;7.446;2023-04-07T10:40:30;14.50;99.90
36186;DHT22;22228;53.222;7.446;2023-04-07T10:42:55;14.70;99.90
36186;DHT22;22228;53.222;7.446;2023-04-07T10:45:51;14.80;99.90
36186;DHT22;22228;53.222;7.446;2023-04-07T10:48:21;14.90;99.90
36186;DHT22;22228;53.222;7.446;2023-04-07T10:50:43;15.10;99.90
36186;DHT22;22228;53.222;7.446;2023-04-07T10:53:11;15.20;99.90
36186;DHT22;22228;53.222;7.446;2023-04-07T10:55:34;15.20;99.90
36186;DHT22;22228;53.222;7.446;2023-04-07T10:58:15;15.30;99.90
36186;DHT22;22228;53.222;7.446;2023-04-07T11:00:36;15.40;99.90
36186;DHT22;22228;53.222;7.446;2023-04-07T11:03:23;15.50;99.90
36186;DHT22;22228;53.222;7.446;2023-04-07T11:05:48;15.70;99.90
36186;DHT22;22228;53.222;7.446;2023-04-07T11:08:09;15.90;99.90
36186;DHT22;22228;53.222;7.446;2023-04-07T11:10:30;16.00;99.90
36186;DHT22;22228;53.222;7.446;2023-04-07T11:13:03;16.30;99.90
36186;DHT22;22228;53.222;7.446;2023-04-07T11:15:24;16.40;99.90
36186;DHT22;22228;53.222;7.446;2023-04-07T11:17:46;16.60;99.90
36186;DHT22;22228;53.222;7.446;2023-04-07T11:20:09;16.60;99.90
36186;DHT22;22228;53.222;7.446;2023-04-07T11:22:30;16.40;99.90
36186;DHT22;22228;53.222;7.446;2023-04-07T11:24:59;16.10;99.90
36186;DHT22;22228;53.222;7.446;2023-04-07T11:27:51;15.80;99.90
36186;DHT22;22228;53.222;7.446;2023-04-07T11:30:36;15.50;99.90
36186;DHT22;22228;53.222;7.446;2023-04-07T11:32:57;15.40;99.90
36186;DHT22;22228;53.222;7.446;2023-04-07T11:35:19;15.30;99.90
36186;DHT22;22228;53.222;7.446;2023-04-07T11:37:40;15.20;99.90
36186;DHT22;22228;53.222;7.446;2023-04-07T11:40:01;15.20;99.90
36186;DHT22;22228;53.222;7.446;2023-04-07T11:42:31;15.10;99.90
36186;DHT22;22228;53.222;7.446;2023-04-07T11:44:52;15.10;99.90
36186;DHT22;22228;53.222;7.446;2023-04-07T11:47:39;15.00;99.90
36186;DHT22;22228;53.222;7.446;2023-04-07T11:50:00;15.00;99.90
36186;DHT22;22228;53.222;7.446;2023-04-07T11:52:23;15.10;99.90
36186;DHT22;22228;53.222;7.446;2023-04-07T11:54:49;15.20;99.90
36186;DHT22;22228;53.222;7.446;2023-04-07T11:57:13;15.20;99.90
36186;DHT22;22228;53.222;7.446;2023-04-07T12:00:05;15.20;99.90
36186;DHT22;22228;53.222;7.446;2023-04-07T12:02:30;15.20;99.90
36186;DHT22;22228;53.222;7.446;2023-04-07T12:05:17;15.20;99.90
36186;DHT22;22228;53.222;7.446;2023-04-07T12:07:50;15.20;99.90
36186;DHT22;22228;53.222;7.446;2023-04-07T12:11:02;15.20;99.90
36186;DHT22;22228;53.222;7.446;2023-04-07T12:13:54;15.20;99.90
36186;DHT22;22228;53.222;7.446;2023-04-07T12:16:25;15.20;99.90
36186;DHT22;22228;53.222;7.446;2023-04-07T12:18:45;15.20;99.90
36186;DHT22;22228;53.222;7.446;2023-04-07T12:21:06;15.20;99.90
36186;DHT22;22228;53.222;7.446;2023-04-07T12:23:29;15.20;99.90
36186;DHT22;22228;53.222;7.446;2023-04-07T12:25:50;15.20;99.90
36186;DHT22;22228;53.222;7.446;2023-04-07T12:28:12;15.20;99.90
36186;DHT22;22228;53.222;7.446;2023-04-07T12:30:58;15.20;99.90
36186;DHT22;22228;53.222;7.446;2023-04-07T12:33:43;15.20;99.90
36186;DHT22;22228;53.222;7.446;2023-04-07T12:36:07;15.20;99.90
36186;DHT22;22228;53.222;7.446;2023-04-07T12:38:29;15.20;99.90
36186;DHT22;22228;53.222;7.446;2023-04-07T12:40:55;15.30;99.90
36186;DHT22;22228;53.222;7.446;2023-04-07T12:43:22;15.30;99.90
36186;DHT22;22228;53.222;7.446;2023-04-07T12:45:42;15.30;99.90
36186;DHT22;22228;53.222;7.446;2023-04-07T12:48:04;15.30;99.90
36186;DHT22;22228;53.222;7.446;2023-04-07T12:50:49;15.30;99.90
36186;DHT22;22228;53.222;7.446;2023-04-07T12:53:10;15.20;99.90
36186;DHT22;22228;53.222;7.446;2023-04-07T12:55:33;15.20;99.90
36186;DHT22;22228;53.222;7.446;2023-04-07T12:57:55;15.30;99.90
36186;DHT22;22228;53.222;7.446;2023-04-07T13:00:17;15.40;99.90
36186;DHT22;22228;53.222;7.446;2023-04-07T13:02:38;15.80;99.90
36186;DHT22;22228;53.222;7.446;2023-04-07T13:05:00;16.50;99.90
36186;DHT22;22228;53.222;7.446;2023-04-07T13:07:45;17.70;99.90
36186;DHT22;22228;53.222;7.446;2023-04-07T13:10:06;19.30;99.90
36186;DHT22;22228;53.222;7.446;2023-04-07T13:12:29;20.40;99.90
36186;DHT22;22228;53.222;7.446;2023-04-07T13:14:51;21.50;99.90
36186;DHT22;22228;53.222;7.446;2023-04-07T13:20:36;22.70;99.90
36186;DHT22;22228;53.222;7.446;2023-04-07T13:22:57;22.60;99.90
36186;DHT22;22228;53.222;7.446;2023-04-07T13:25:17;22.90;99.90
36186;DHT22;22228;53.222;7.446;2023-04-07T13:27:39;23.70;99.90
36186;DHT22;22228;53.222;7.446;2023-04-07T13:30:00;23.70;99.90
36186;DHT22;22228;53.222;7.446;2023-04-07T13:32:53;23.70;99.90
36186;DHT22;22228;53.222;7.446;2023-04-07T13:35:20;24.20;99.90
36186;DHT22;22228;53.222;7.446;2023-04-07T13:37:44;24.80;99.90
36186;DHT22;22228;53.222;7.446;2023-04-07T13:40:06;24.50;99.90
36186;DHT22;22228;53.222;7.446;2023-04-07T13:42:27;24.60;99.90
36186;DHT22;22228;53.222;7.446;2023-04-07T13:44:49;24.70;99.90
36186;DHT22;22228;53.222;7.446;2023-04-07T13:47:12;24.90;99.90
36186;DHT22;22228;53.222;7.446;2023-04-07T13:49:38;24.90;99.90
36186;DHT22;22228;53.222;7.446;2023-04-07T13:51:58;24.80;99.90
36186;DHT22;22228;53.222;7.446;2023-04-07T13:54:19;25.20;99.90
36186;DHT22;22228;53.222;7.446;2023-04-07T13:56:40;25.10;99.90
36186;DHT22;22228;53.222;7.446;2023-04-07T13:59:00;24.70;99.90
36186;DHT22;22228;53.222;7.446;2023-04-07T14:01:26;24.60;99.90
36186;DHT22;22228;53.222;7.446;2023-04-07T14:04:12;24.40;99.90
36186;DHT22;22228;53.222;7.446;2023-04-07T14:06:58;24.50;99.90
36186;DHT22;22228;53.222;7.446;2023-04-07T14:09:19;24.60;99.90
36186;DHT22;22228;53.222;7.446;2023-04-07T14:12:05;25.20;99.90
36186;DHT22;22228;53.222;7.446;2023-04-07T14:14:51;25.90;99.90
36186;DHT22;22228;53.222;7.446;2023-04-07T14:17:20;25.40;99.90
36186;DHT22;22228;53.222;7.446;2023-04-07T14:19:41;25.40;99.90
36186;DHT22;22228;53.222;7.446;2023-04-07T14:22:06;25.60;99.90
36186;DHT22;22228;53.222;7.446;2023-04-07T14:24:27;25.80;99.90
36186;DHT22;22228;53.222;7.446;2023-04-07T14:26:48;25.90;99.90
36186;DHT22;22228;53.222;7.446;2023-04-07T14:29:16;25.90;99.90
36186;DHT22;22228;53.222;7.446;2023-04-07T14:31:37;25.60;99.90
36186;DHT22;22228;53.222;7.446;2023-04-07T14:34:00;25.70;99.90
36186;DHT22;22228;53.222;7.446;2023-04-07T14:36:22;26.00;99.90
36186;DHT22;22228;53.222;7.446;2023-04-07T14:38:43;25.90;99.90
36186;DHT22;22228;53.222;7.446;2023-04-07T14:41:35;26.00;99.90
36186;DHT22;22228;53.222;7.446;2023-04-07T14:44:03;25.90;99.90
36186;DHT22;22228;53.222;7.446;2023-04-07T14:46:25;25.50;99.90
36186;DHT22;22228;53.222;7.446;2023-04-07T14:48:47;25.30;99.90
36186;DHT22;22228;53.222;7.446;2023-04-07T14:51:13;25.30;99.90
36186;DHT22;22228;53.222;7.446;2023-04-07T14:53:34;25.60;99.90
36186;DHT22;22228;53.222;7.446;2023-04-07T14:55:55;24.70;99.90
36186;DHT22;22228;53.222;7.446;2023-04-07T14:58:16;24.90;99.90
36186;DHT22;22228;53.222;7.446;2023-04-07T15:01:11;25.20;99.90
36186;DHT22;22228;53.222;7.446;2023-04-07T15:03:32;25.50;99.90
36186;DHT22;22228;53.222;7.446;2023-04-07T15:06:00;26.00;99.90
36186;DHT22;22228;53.222;7.446;2023-04-07T15:08:31;26.00;99.90
36186;DHT22;22228;53.222;7.446;2023-04-07T15:10:52;25.80;99.90
36186;DHT22;22228;53.222;7.446;2023-04-07T15:13:14;25.40;99.90
36186;DHT22;22228;53.222;7.446;2023-04-07T15:15:35;25.60;99.90
36186;DHT22;22228;53.222;7.446;2023-04-07T15:17:56;25.80;99.90
36186;DHT22;22228;53.222;7.446;2023-04-07T15:20:18;25.90;99.90
36186;DHT22;22228;53.222;7.446;2023-04-07T15:22:41;25.80;99.90
36186;DHT22;22228;53.222;7.446;2023-04-07T15:25:04;25.70;99.90
36186;DHT22;22228;53.222;7.446;2023-04-07T15:27:26;25.80;99.90
36186;DHT22;22228;53.222;7.446;2023-04-07T15:30:14;26.20;99.90
36186;DHT22;22228;53.222;7.446;2023-04-07T15:33:02;26.50;99.90
36186;DHT22;22228;53.222;7.446;2023-04-07T15:35:23;26.60;99.90
36186;DHT22;22228;53.222;7.446;2023-04-07T15:37:47;26.70;99.90
36186;DHT22;22228;53.222;7.446;2023-04-07T15:40:34;26.20;99.90
36186;DHT22;22228;53.222;7.446;2023-04-07T15:42:57;25.40;99.90
36186;DHT22;22228;53.222;7.446;2023-04-07T15:45:19;24.90;99.90
36186;DHT22;22228;53.222;7.446;2023-04-07T15:47:41;24.20;99.90
36186;DHT22;22228;53.222;7.446;2023-04-07T15:50:02;23.30;99.90
36186;DHT22;22228;53.222;7.446;2023-04-07T15:52:23;22.60;99.90
36186;DHT22;22228;53.222;7.446;2023-04-07T15:55:09;22.20;99.90
36186;DHT22;22228;53.222;7.446;2023-04-07T15:57:31;21.50;99.90
36186;DHT22;22228;53.222;7.446;2023-04-07T15:59:52;21.10;99.90
36186;DHT22;22228;53.222;7.446;2023-04-07T16:02:13;20.70;99.90
36186;DHT22;22228;53.222;7.446;2023-04-07T16:04:59;20.50;99.90
36186;DHT22;22228;53.222;7.446;2023-04-07T16:07:50;20.00;99.90
36186;DHT22;22228;53.222;7.446;2023-04-07T16:10:10;19.30;99.90
36186;DHT22;22228;53.222;7.446;2023-04-07T16:12:59;18.60;99.90
36186;DHT22;22228;53.222;7.446;2023-04-07T16:15:19;18.20;99.90
36186;DHT22;22228;53.222;7.446;2023-04-07T16:17:47;18.00;99.90
36186;DHT22;22228;53.222;7.446;2023-04-07T16:20:09;17.80;99.90
36186;DHT22;22228;53.222;7.446;2023-04-07T16:22:34;17.50;99.90
36186;DHT22;22228;53.222;7.446;2023-04-07T16:24:55;17.20;99.90
36186;DHT22;22228;53.222;7.446;2023-04-07T16:27:16;16.90;99.90
36186;DHT22;22228;53.222;7.446;2023-04-07T16:29:42;16.80;99.90
36186;DHT22;22228;53.222;7.446;2023-04-07T16:32:03;16.50;99.90
36186;DHT22;22228;53.222;7.446;2023-04-07T16:34:27;16.20;99.90
36186;DHT22;22228;53.222;7.446;2023-04-07T16:37:15;15.90;99.90
36186;DHT22;22228;53.222;7.446;2023-04-07T16:40:00;15.70;99.90
36186;DHT22;22228;53.222;7.446;2023-04-07T16:42:21;15.60;99.90
36186;DHT22;22228;53.222;7.446;2023-04-07T16:45:10;15.80;99.90
36186;DHT22;22228;53.222;7.446;2023-04-07T16:47:31;16.20;99.90
36186;DHT22;22228;53.222;7.446;2023-04-07T16:50:01;16.30;99.90
36186;DHT22;22228;53.222;7.446;2023-04-07T16:52:48;16.20;99.90
36186;DHT22;22228;53.222;7.446;2023-04-07T16:55:11;16.20;99.90
36186;DHT22;22228;53.222;7.446;2023-04-07T16:57:35;16.00;99.90
36186;DHT22;22228;53.222;7.446;2023-04-07T16:59:56;15.90;99.90
36186;DHT22;22228;53.222;7.446;2023-04-07T17:02:45;15.40;99.90
36186;DHT22;22228;53.222;7.446;2023-04-07T17:05:07;15.10;99.90
36186;DHT22;22228;53.222;7.446;2023-04-07T17:07:29;14.80;99.90
36186;DHT22;22228;53.222;7.446;2023-04-07T17:09:50;14.60;99.90
36186;DHT22;22228;53.222;7.446;2023-04-07T17:12:12;14.50;99.90
36186;DHT22;22228;53.222;7.446;2023-04-07T17:15:05;14.30;99.90
36186;DHT22;22228;53.222;7.446;2023-04-07T17:17:36;14.10;99.90
36186;DHT22;22228;53.222;7.446;2023-04-07T17:19:59;13.80;99.90
36186;DHT22;22228;53.222;7.446;2023-04-07T17:22:19;13.50;99.90
36186;DHT22;22228;53.222;7.446;2023-04-07T17:24:45;13.30;99.90
36186;DHT22;22228;53.222;7.446;2023-04-07T17:27:12;13.00;99.90
36186;DHT22;22228;53.222;7.446;2023-04-07T17:29:33;12.80;99.90
36186;DHT22;22228;53.222;7.446;2023-04-07T17:31:57;12.60;99.90
36186;DHT22;22228;53.222;7.446;2023-04-07T17:34:18;12.40;99.90
36186;DHT22;22228;53.222;7.446;2023-04-07T17:36:40;12.30;99.90
36186;DHT22;22228;53.222;7.446;2023-04-07T17:39:26;12.10;99.90
36186;DHT22;22228;53.222;7.446;2023-04-07T17:41:47;12.00;99.90
36186;DHT22;22228;53.222;7.446;2023-04-07T17:44:08;11.90;99.90
36186;DHT22;22228;53.222;7.446;2023-04-07T17:53:19;11.70;99.90
36186;DHT22;22228;53.222;7.446;2023-04-07T17:55:46;11.70;99.90
36186;DHT22;22228;53.222;7.446;2023-04-07T17:58:07;11.60;99.90
36186;DHT22;22228;53.222;7.446;2023-04-07T18:00:31;11.50;99.90
36186;DHT22;22228;53.222;7.446;2023-04-07T18:02:52;11.40;99.90
36186;DHT22;22228;53.222;7.446;2023-04-07T18:05:13;11.30;99.90
36186;DHT22;22228;53.222;7.446;2023-04-07T18:07:34;11.00;99.90
36186;DHT22;22228;53.222;7.446;2023-04-07T18:09:56;10.90;99.90
36186;DHT22;22228;53.222;7.446;2023-04-07T18:12:20;10.70;99.90
36186;DHT22;22228;53.222;7.446;2023-04-07T18:17:55;10.50;99.90
36186;DHT22;22228;53.222;7.446;2023-04-07T18:20:22;10.30;99.90
36186;DHT22;22228;53.222;7.446;2023-04-07T18:22:43;10.10;99.90
36186;DHT22;22228;53.222;7.446;2023-04-07T18:25:32;10.10;99.90
36186;DHT22;22228;53.222;7.446;2023-04-07T18:27:54;10.00;99.90
36186;DHT22;22228;53.222;7.446;2023-04-07T18:30:39;9.90;99.90
36186;DHT22;22228;53.222;7.446;2023-04-07T18:33:31;9.80;99.90
36186;DHT22;22228;53.222;7.446;2023-04-07T18:35:52;9.70;99.90
36186;DHT22;22228;53.222;7.446;2023-04-07T18:38:13;9.70;99.90
36186;DHT22;22228;53.222;7.446;2023-04-07T18:40:42;9.70;99.90
36186;DHT22;22228;53.222;7.446;2023-04-07T18:43:03;9.60;99.90
36186;DHT22;22228;53.222;7.446;2023-04-07T18:45:27;9.50;99.90
36186;DHT22;22228;53.222;7.446;2023-04-07T18:47:49;9.40;99.90